Time;durP1;ratioP1;P1;durP2;ratioP2;P2;SDS_P1;SDS_P2;PMS_P1;PMS_P2;Temp;Humidity;BMP_temperature;BMP_pressure;BME280_temperature;BME280_humidity;BME280_pressure;Samples;Min_cycle;Max_cycle;Signal;HPM_P1;HPM_P2
2022/09/12 00:01:23;;;;;;;10.60;7.38;;;;;;;10.73;100.00;98887.63;5026636;28;20033;-72
2022/09/12 00:03:55;;;;;;;10.85;6.93;;;;;;;10.83;100.00;98897.25;5025101;28;20037;-71
2022/09/12 00:06:24;;;;;;;10.85;6.43;;;;;;;10.68;100.00;98879.28;5022866;28;20363;-71
2022/09/12 00:08:53;;;;;;;9.30;6.15;;;;;;;10.90;100.00;98892.72;5028385;28;20060;-72
2022/09/12 00:11:18;;;;;;;8.67;6.30;;;;;;;10.80;100.00;98879.56;5024627;28;20052;-72
2022/09/12 00:13:44;;;;;;;10.02;6.03;;;;;;;10.68;100.00;98860.34;5025888;28;20561;-72
2022/09/12 00:16:21;;;;;;;9.95;6.32;;;;;;;10.71;100.00;98883.47;5026008;28;20032;-71
2022/09/12 00:18:46;;;;;;;9.50;5.57;;;;;;;10.57;100.00;98874.47;5030609;28;20029;-71
2022/09/12 00:21:13;;;;;;;8.02;5.82;;;;;;;10.70;100.00;98879.94;5019587;28;20483;-72
2022/09/12 00:23:38;;;;;;;8.27;5.78;;;;;;;10.74;100.00;98877.63;5022150;28;20032;-72
2022/09/12 00:26:05;;;;;;;9.38;6.10;;;;;;;10.61;100.00;98878.44;5022143;28;20025;-71
2022/09/12 00:28:32;;;;;;;10.63;6.50;;;;;;;10.52;100.00;98874.22;5028677;28;20031;-72
2022/09/12 00:30:58;;;;;;;8.68;6.07;;;;;;;10.45;100.00;98881.47;5011320;28;20025;-72
2022/09/12 00:33:23;;;;;;;8.80;6.32;;;;;;;10.33;100.00;98862.28;5028959;28;20029;-72
2022/09/12 00:35:53;;;;;;;10.13;6.47;;;;;;;10.46;100.00;98880.47;5023714;28;20036;-72
2022/09/12 00:38:20;;;;;;;13.15;7.10;;;;;;;10.44;100.00;98882.53;5008370;28;20038;-72
2022/09/12 00:40:46;;;;;;;10.63;6.70;;;;;;;10.44;100.00;98882.53;5023692;28;20025;-72
2022/09/12 00:43:34;;;;;;;15.38;6.75;;;;;;;10.44;100.00;98877.13;5028640;28;20544;-71
2022/09/12 00:46:35;;;;;;;9.63;6.20;;;;;;;10.36;100.00;98874.59;5030017;28;20025;-71
2022/09/12 00:49:25;;;;;;;12.35;7.03;;;;;;;10.40;100.00;98881.25;5021780;28;20044;-71
2022/09/12 00:52:02;;;;;;;10.88;6.70;;;;;;;10.35;100.00;98873.75;5020256;28;20040;-71
2022/09/12 00:54:33;;;;;;;10.77;6.57;;;;;;;10.26;100.00;98864.09;5023482;28;20025;-71
2022/09/12 00:57:01;;;;;;;12.38;6.30;;;;;;;10.23;100.00;98868.03;5023595;28;20025;-71
2022/09/12 00:59:33;;;;;;;11.05;6.75;;;;;;;10.31;100.00;98864.34;5027405;28;20112;-71
2022/09/12 01:01:58;;;;;;;10.63;6.68;;;;;;;10.37;100.00;98860.00;5023803;28;20037;-72
2022/09/12 01:04:26;;;;;;;9.88;5.93;;;;;;;10.40;100.00;98859.59;5026005;28;20395;-72
2022/09/12 01:06:54;;;;;;;7.90;5.40;;;;;;;10.23;100.00;98835.59;5027041;28;20458;-71
2022/09/12 01:09:22;;;;;;;9.63;5.70;;;;;;;10.27;100.00;98861.22;5026308;28;20152;-72
2022/09/12 01:11:49;;;;;;;8.38;5.68;;;;;;;10.22;100.00;98852.84;5028761;28;20034;-71
2022/09/12 01:14:16;;;;;;;9.43;5.70;;;;;;;10.05;100.00;98835.28;5025275;28;20091;-71
2022/09/12 01:16:43;;;;;;;10.45;5.82;;;;;;;10.06;100.00;98853.16;5010525;28;20529;-71
2022/09/12 01:19:31;;;;;;;12.55;5.85;;;;;;;10.05;100.00;98852.31;5026044;28;20045;-71
2022/09/12 01:22:27;;;;;;;8.45;5.90;;;;;;;9.86;100.00;98853.88;5022743;28;20021;-72
2022/09/12 01:25:01;;;;;;;9.80;5.35;;;;;;;9.84;100.00;98850.53;5027570;28;20034;-72
2022/09/12 01:27:42;;;;;;;14.13;6.22;;;;;;;9.86;100.00;98851.16;5029988;28;20026;-72
2022/09/12 01:30:21;;;;;;;9.00;5.80;;;;;;;9.94;100.00;98850.19;5022469;28;20455;-72
2022/09/12 01:33:11;;;;;;;9.32;5.95;;;;;;;9.83;100.00;98854.28;5009630;28;20021;-72
2022/09/12 01:35:53;;;;;;;8.40;5.80;;;;;;;9.79;100.00;98839.47;5031487;28;20029;-71
2022/09/12 01:38:26;;;;;;;8.40;5.60;;;;;;;9.80;100.00;98838.47;5029529;28;20041;-71
2022/09/12 01:41:21;;;;;;;12.25;5.85;;;;;;;9.68;100.00;98834.63;5015071;28;20578;-72
2022/09/12 01:43:52;;;;;;;9.80;6.20;;;;;;;9.73;100.00;98842.97;5018799;28;20025;-71
2022/09/12 01:46:28;;;;;;;8.77;6.25;;;;;;;9.65;100.00;98843.13;5029645;28;20072;-71
2022/09/12 01:48:59;;;;;;;9.70;5.82;;;;;;;9.65;100.00;98843.94;5013039;28;20032;-72
2022/09/12 01:51:34;;;;;;;10.18;5.63;;;;;;;9.72;100.00;98837.75;5030567;28;20037;-71
2022/09/12 01:54:08;;;;;;;9.38;5.95;;;;;;;9.67;100.00;98841.06;5034676;28;20518;-72
2022/09/12 01:56:37;;;;;;;8.35;5.90;;;;;;;9.69;100.00;98841.69;5028175;28;20025;-71
2022/09/12 01:59:05;;;;;;;8.60;5.95;;;;;;;9.70;100.00;98842.53;5031995;28;20037;-72
2022/09/12 02:01:33;;;;;;;10.02;6.03;;;;;;;9.70;100.00;98843.38;5029331;28;20037;-71
2022/09/12 02:04:19;;;;;;;8.52;5.95;;;;;;;9.61;100.00;98839.13;5034400;28;20561;-71
2022/09/12 02:06:54;;;;;;;7.13;5.25;;;;;;;9.50;100.00;98818.06;5032679;28;20609;-71
2022/09/12 02:09:33;;;;;;;10.68;5.72;;;;;;;9.61;100.00;98836.44;5025035;28;20095;-72
2022/09/12 02:12:00;;;;;;;9.85;6.00;;;;;;;9.66;100.00;98834.81;5031502;28;20029;-71
2022/09/12 02:14:30;;;;;;;9.57;5.93;;;;;;;9.68;100.00;98829.22;5028805;28;20037;-71
2022/09/12 02:17:19;;;;;;;12.02;6.18;;;;;;;9.75;100.00;98829.28;5031683;28;20045;-71
2022/09/12 02:19:52;;;;;;;8.57;5.57;;;;;;;9.52;100.00;98800.63;5026830;28;20025;-71
2022/09/12 02:22:21;;;;;;;8.90;5.65;;;;;;;9.60;100.00;98815.88;5028820;28;20132;-71
2022/09/12 02:24:51;;;;;;;10.20;6.15;;;;;;;9.57;100.00;98816.25;5028044;28;20053;-71
2022/09/12 02:27:24;;;;;;;16.10;6.55;;;;;;;9.52;100.00;98807.91;5010961;28;20474;-72
2022/09/12 02:29:50;;;;;;;11.05;6.50;;;;;;;9.51;100.00;98814.31;5027817;28;20072;-71
2022/09/12 02:32:25;;;;;;;14.55;7.80;;;;;;;9.50;100.00;98816.19;5027477;28;20088;-72
2022/09/12 02:35:02;;;;;;;13.93;7.70;;;;;;;9.50;100.00;98809.97;5028369;28;20383;-72
2022/09/12 02:37:42;;;;;;;15.13;8.02;;;;;;;9.47;100.00;98818.47;5007274;28;20040;-71
2022/09/12 02:40:08;;;;;;;11.45;7.78;;;;;;;9.30;100.00;98794.47;5013794;28;20029;-72
2022/09/12 02:42:35;;;;;;;11.00;7.10;;;;;;;9.48;100.00;98815.56;5079241;22;20139;-66
2022/09/12 02:45:01;;;;;;;14.60;8.35;;;;;;;9.36;100.00;98811.75;5061567;28;20044;-66
2022/09/12 02:47:44;;;;;;;13.80;6.70;;;;;;;9.25;100.00;98807.72;5063070;28;20028;-66
2022/09/12 02:50:09;;;;;;;12.43;7.88;;;;;;;9.19;100.00;98803.91;5063345;28;20028;-66
2022/09/12 02:52:35;;;;;;;10.40;6.55;;;;;;;9.20;100.00;98796.66;5062527;28;20023;-66
2022/09/12 02:55:03;;;;;;;10.10;7.00;;;;;;;9.08;100.00;98796.31;5048018;28;20395;-66
2022/09/12 02:57:29;;;;;;;14.05;6.75;;;;;;;9.09;100.00;98802.56;5046651;28;20028;-66
2022/09/12 02:59:58;;;;;;;10.27;7.25;;;;;;;9.05;100.00;98798.59;5045900;28;20021;-69
2022/09/12 03:02:45;;;;;;;12.13;8.23;;;;;;;9.07;100.00;98799.25;5044480;28;20053;-66
2022/09/12 03:05:25;;;;;;;13.43;7.88;;;;;;;9.02;100.00;98796.28;5048158;28;20025;-68
2022/09/12 03:08:17;;;;;;;10.27;6.60;;;;;;;8.98;100.00;98793.94;5051196;28;20078;-66
2022/09/12 03:11:08;;;;;;;10.90;8.02;;;;;;;9.03;100.00;98803.34;5046757;28;20029;-66
2022/09/12 03:13:33;;;;;;;18.23;7.38;;;;;;;8.96;100.00;98797.88;5044878;28;20104;-66
2022/09/12 03:16:14;;;;;;;14.18;8.00;;;;;;;8.89;100.00;98799.69;5030972;28;20025;-67
2022/09/12 03:19:06;;;;;;;10.00;7.75;;;;;;;8.90;100.00;98793.25;5043450;28;20107;-67
2022/09/12 03:21:34;;;;;;;10.77;7.22;;;;;;;8.86;100.00;98798.22;5039252;28;20040;-66
2022/09/12 03:24:11;;;;;;;9.32;6.82;;;;;;;8.80;100.00;98801.66;5047336;28;20048;-66
2022/09/12 03:26:58;;;;;;;8.90;6.57;;;;;;;8.81;100.00;98800.66;5048781;28;20101;-66
2022/09/12 03:29:25;;;;;;;10.25;7.30;;;;;;;8.85;100.00;98801.09;5032557;28;20108;-66
2022/09/12 03:31:54;;;;;;;11.38;7.00;;;;;;;8.87;100.00;98804.44;5049187;28;20021;-66
2022/09/12 03:34:20;;;;;;;12.88;6.93;;;;;;;8.81;100.00;98808.75;5054124;28;20025;-66
2022/09/12 03:36:46;;;;;;;9.77;7.60;;;;;;;8.86;100.00;98798.22;5049013;28;20064;-66
2022/09/12 03:39:12;;;;;;;10.55;7.13;;;;;;;8.88;100.00;98798.84;5043420;28;20040;-66
2022/09/12 03:41:37;;;;;;;10.75;6.85;;;;;;;8.93;100.00;98814.44;5048529;28;20017;-67
2022/09/12 03:44:03;;;;;;;12.55;7.82;;;;;;;9.13;100.00;98804.69;5045622;28;20056;-69
2022/09/12 03:46:28;;;;;;;12.93;8.07;;;;;;;9.20;100.00;98805.59;5046718;28;20679;-67
2022/09/12 03:48:54;;;;;;;15.23;8.52;;;;;;;9.23;100.00;98793.56;5042288;28;20021;-66
2022/09/12 03:51:19;;;;;;;13.52;8.73;;;;;;;9.20;100.00;98807.47;5041026;28;20056;-66
2022/09/12 03:53:45;;;;;;;13.57;7.88;;;;;;;9.15;100.00;98818.00;5049392;28;20020;-66
2022/09/12 03:56:11;;;;;;;14.23;8.15;;;;;;;9.17;100.00;98813.25;5044916;28;20377;-66
2022/09/12 03:58:37;;;;;;;11.85;7.45;;;;;;;9.13;100.00;98804.69;5046780;28;20029;-67
2022/09/12 04:01:11;;;;;;;13.13;7.95;;;;;;;9.07;100.00;98793.84;5049239;28;20031;-66
2022/09/12 04:03:47;;;;;;;12.63;7.75;;;;;;;9.09;100.00;98806.13;5044372;28;20478;-66
2022/09/12 04:06:16;;;;;;;10.77;7.30;;;;;;;9.06;100.00;98803.78;5047698;28;20032;-66
2022/09/12 04:08:42;;;;;;;13.02;8.18;;;;;;;9.14;100.00;98806.38;5039181;28;20043;-66
2022/09/12 04:11:13;;;;;;;12.02;7.10;;;;;;;9.02;100.00;98793.59;5048416;28;20462;-66
2022/09/12 04:13:39;;;;;;;10.20;6.82;;;;;;;8.96;100.00;98804.13;5041275;28;20462;-73
2022/09/12 04:16:06;;;;;;;12.73;6.57;;;;;;;8.83;100.00;98801.31;5045815;28;20072;-74
2022/09/12 04:18:32;;;;;;;11.48;7.13;;;;;;;8.85;100.00;98801.91;5027664;28;20743;-75
2022/09/12 04:20:58;;;;;;;11.15;7.28;;;;;;;8.77;100.00;98791.25;5046883;28;20029;-74
2022/09/12 04:23:23;;;;;;;14.13;8.05;;;;;;;8.81;100.00;98787.16;5033036;28;20565;-75
2022/09/12 04:25:56;;;;;;;13.43;7.85;;;;;;;8.83;100.00;98804.00;5033047;28;20108;-76
2022/09/12 04:28:22;;;;;;;13.63;8.30;;;;;;;8.85;100.00;98809.19;5045395;28;20020;-75
2022/09/12 04:30:48;;;;;;;13.32;8.43;;;;;;;8.80;100.00;98806.22;5041830;28;20027;-74
2022/09/12 04:33:14;;;;;;;14.90;7.68;;;;;;;8.71;100.00;98802.81;5031997;28;20020;-75
2022/09/12 04:35:40;;;;;;;12.52;7.80;;;;;;;8.64;100.00;98797.34;5031191;28;20029;-75
2022/09/12 04:38:06;;;;;;;14.77;7.88;;;;;;;8.63;100.00;98795.69;5051613;28;20029;-74
2022/09/12 04:40:32;;;;;;;15.52;8.55;;;;;;;8.51;100.00;98795.38;5048984;28;20044;-76
2022/09/12 04:42:57;;;;;;;12.40;7.45;;;;;;;8.56;100.00;98811.78;5049947;28;20029;-76
2022/09/12 04:45:23;;;;;;;11.88;7.05;;;;;;;8.50;100.00;98822.50;5041400;28;20025;-76
2022/09/12 04:47:48;;;;;;;10.60;7.45;;;;;;;8.37;100.00;98801.59;5049285;28;20021;-75
2022/09/12 04:50:14;;;;;;;16.25;7.45;;;;;;;8.44;100.00;98809.78;5049694;28;20032;-77
2022/09/12 04:52:40;;;;;;;12.48;7.40;;;;;;;8.37;100.00;98809.66;5049474;28;20028;-73
2022/09/12 04:55:06;;;;;;;11.30;7.43;;;;;;;8.30;100.00;98800.66;5050190;28;20024;-77
2022/09/12 04:57:32;;;;;;;14.05;7.57;;;;;;;8.34;100.00;98801.97;5040462;28;20029;-76
2022/09/12 04:59:58;;;;;;;15.90;7.95;;;;;;;8.44;100.00;98794.44;5042413;28;20785;-77
2022/09/12 05:02:23;;;;;;;10.07;6.70;;;;;;;8.53;100.00;98801.38;5029707;28;20507;-76
2022/09/12 05:04:49;;;;;;;12.38;7.20;;;;;;;8.56;100.00;98802.84;5042958;28;20021;-78
2022/09/12 05:07:14;;;;;;;9.73;6.75;;;;;;;8.48;100.00;98784.09;5032140;28;20033;-77
2022/09/12 05:09:40;;;;;;;9.80;6.82;;;;;;;8.53;100.00;98793.28;5035598;28;20082;-77
2022/09/12 05:12:06;;;;;;;11.90;6.80;;;;;;;8.52;100.00;98791.63;5037766;28;20530;-77
2022/09/12 05:14:32;;;;;;;8.68;6.25;;;;;;;8.62;100.00;98791.34;5027744;28;20036;-75
2022/09/12 05:17:00;;;;;;;10.02;6.72;;;;;;;8.51;100.00;98779.19;5052317;28;20200;-75
2022/09/12 05:19:26;;;;;;;10.43;6.63;;;;;;;8.75;100.00;98791.47;5037095;28;20025;-74
2022/09/12 05:21:51;;;;;;;10.85;6.80;;;;;;;8.90;100.00;98779.75;5037003;28;20021;-74
2022/09/12 05:24:16;;;;;;;9.98;6.85;;;;;;;9.22;100.00;98789.16;5052886;28;20036;-75
2022/09/12 05:26:42;;;;;;;11.73;6.15;;;;;;;9.53;100.00;98787.97;5054408;28;20013;-74
2022/09/12 05:29:07;;;;;;;9.50;6.38;;;;;;;10.36;100.00;98805.09;5049905;28;20033;-68
2022/09/12 05:31:33;;;;;;;7.53;5.20;;;;;;;11.70;100.00;98800.69;5051671;28;20496;-68
2022/09/12 05:33:59;;;;;;;9.57;5.97;;;;;;;12.94;100.00;98795.03;5052221;28;20573;-68
2022/09/12 05:36:28;;;;;;;10.45;5.63;;;;;;;14.18;100.00;98797.91;5054706;28;20032;-68
2022/09/12 05:38:53;;;;;;;6.80;5.05;;;;;;;15.10;98.26;98791.50;5053346;28;20025;-68
2022/09/12 05:41:21;;;;;;;6.72;4.57;;;;;;;16.06;89.62;98805.00;5042141;28;20478;-68
2022/09/12 05:43:51;;;;;;;5.65;4.25;;;;;;;16.55;78.64;98797.28;5030303;28;20027;-67
2022/09/12 05:46:19;;;;;;;6.43;4.93;;;;;;;16.90;73.23;98799.94;5045554;28;20021;-68
2022/09/12 05:48:45;;;;;;;6.60;4.47;;;;;;;17.16;72.39;98798.50;5045137;28;20032;-69
2022/09/12 05:51:18;;;;;;;6.28;4.70;;;;;;;17.37;70.12;98798.84;5040909;28;20033;-68
2022/09/12 05:53:44;;;;;;;7.35;4.25;;;;;;;17.75;70.80;98804.38;5044084;28;20021;-68
2022/09/12 05:56:12;;;;;;;8.90;4.57;;;;;;;18.14;69.12;98804.44;5045086;28;20541;-68
2022/09/12 05:58:40;;;;;;;7.57;4.60;;;;;;;18.75;65.79;98803.59;5038283;28;20043;-68
2022/09/12 06:01:11;;;;;;;7.85;4.47;;;;;;;19.32;65.52;98794.84;5046186;28;20725;-69
2022/09/12 06:03:46;;;;;;;7.05;4.18;;;;;;;19.22;63.16;98789.28;5040964;28;20161;-66
2022/09/12 06:06:13;;;;;;;7.57;4.28;;;;;;;20.03;62.40;98802.00;5041645;28;20033;-64
2022/09/12 06:08:40;;;;;;;10.25;4.70;;;;;;;20.05;60.46;98792.41;5041948;28;20121;-67
2022/09/12 06:11:06;;;;;;;8.65;4.75;;;;;;;21.09;57.47;98795.34;5042065;28;20021;-68
2022/09/12 06:13:37;;;;;;;7.00;4.22;;;;;;;21.76;56.17;98785.19;5047689;28;20407;-67
2022/09/12 06:16:08;;;;;;;8.35;4.30;;;;;;;21.87;54.67;98777.72;5043604;28;20026;-68
2022/09/12 06:18:34;;;;;;;5.85;3.95;;;;;;;22.29;54.53;98782.88;5044793;28;20028;-68
2022/09/12 06:21:05;;;;;;;6.30;4.10;;;;;;;22.57;52.64;98779.78;5044642;28;20383;-68
2022/09/12 06:23:31;;;;;;;5.20;4.18;;;;;;;23.19;52.89;98781.13;5039106;28;20032;-69
2022/09/12 06:25:56;;;;;;;7.78;3.70;;;;;;;24.43;50.55;98770.56;5039489;28;20048;-69
2022/09/12 06:28:22;;;;;;;6.75;3.60;;;;;;;25.11;48.12;98774.94;5051230;28;20482;-69
2022/09/12 06:30:47;;;;;;;4.35;3.42;;;;;;;24.75;45.84;98778.19;5049460;28;20177;-69
2022/09/12 06:33:13;;;;;;;5.15;3.75;;;;;;;23.66;48.09;98785.16;5045283;28;20108;-69
2022/09/12 06:35:39;;;;;;;8.20;3.45;;;;;;;24.34;47.26;98783.38;5058010;28;20048;-68
2022/09/12 06:38:04;;;;;;;5.07;2.92;;;;;;;24.10;47.78;98786.13;5051366;28;20394;-64
2022/09/12 06:40:30;;;;;;;5.47;3.75;;;;;;;23.94;48.54;98779.94;5042840;28;20032;-66
2022/09/12 06:42:55;;;;;;;4.60;3.63;;;;;;;24.41;48.20;98783.84;5031062;28;20501;-65
2022/09/12 06:45:21;;;;;;;5.40;3.72;;;;;;;25.32;46.56;98767.16;5047864;28;20028;-68
2022/09/12 06:47:47;;;;;;;6.00;4.22;;;;;;;26.18;45.06;98773.16;5048204;28;20025;-69
2022/09/12 06:50:12;;;;;;;7.13;4.07;;;;;;;26.41;43.46;98774.09;5041025;28;20020;-65
2022/09/12 06:52:37;;;;;;;5.97;4.55;;;;;;;27.45;42.40;98774.31;5047387;28;20048;-67
2022/09/12 06:55:04;;;;;;;4.25;3.78;;;;;;;27.29;41.76;98782.19;5048789;28;20099;-68
2022/09/12 06:57:31;;;;;;;5.70;4.07;;;;;;;27.92;40.36;98776.75;5044418;28;20099;-68
2022/09/12 06:59:57;;;;;;;4.93;4.40;;;;;;;28.55;40.07;98775.59;5048567;28;20066;-68
2022/09/12 07:02:24;;;;;;;6.28;4.50;;;;;;;28.81;38.88;98774.84;5048209;28;20037;-67
2022/09/12 07:04:50;;;;;;;4.88;4.35;;;;;;;29.14;38.46;98771.63;5045393;28;20029;-68
2022/09/12 07:07:16;;;;;;;5.32;4.40;;;;;;;29.34;37.45;98784.91;5043679;28;20035;-67
2022/09/12 07:09:41;;;;;;;6.97;4.22;;;;;;;28.80;38.46;98778.78;5049661;28;20096;-68
2022/09/12 07:12:06;;;;;;;5.32;4.30;;;;;;;29.66;37.53;98777.22;5050440;28;20496;-68
2022/09/12 07:14:32;;;;;;;6.43;4.43;;;;;;;29.33;37.39;98768.53;5046629;28;20021;-68
2022/09/12 07:16:57;;;;;;;9.15;4.50;;;;;;;29.91;36.92;98773.53;5044806;28;20025;-68
2022/09/12 07:19:23;;;;;;;5.60;4.40;;;;;;;30.14;36.13;98770.53;5040670;28;20390;-69
2022/09/12 07:21:49;;;;;;;4.45;4.05;;;;;;;30.91;35.58;98776.09;5046126;28;20108;-68
2022/09/12 07:24:14;;;;;;;4.68;4.18;;;;;;;30.75;35.33;98768.25;5050351;28;20124;-68
2022/09/12 07:26:40;;;;;;;5.97;4.30;;;;;;;29.12;38.23;98768.34;5034040;28;20033;-68
2022/09/12 07:29:11;;;;;;;5.32;4.50;;;;;;;29.79;37.31;98765.06;5044182;28;20754;-68
2022/09/12 07:31:36;;;;;;;6.63;4.15;;;;;;;30.14;37.15;98774.13;5042854;28;20029;-68
2022/09/12 07:34:05;;;;;;;8.25;3.63;;;;;;;31.08;35.96;98775.16;5048541;28;20482;-68
2022/09/12 07:36:30;;;;;;;4.90;3.80;;;;;;;31.82;34.87;98771.53;5046919;28;20604;-68
2022/09/12 07:38:56;;;;;;;9.38;4.25;;;;;;;32.07;34.35;98766.84;5048559;28;20048;-68
2022/09/12 07:41:25;;;;;;;5.15;3.50;;;;;;;32.88;33.52;98767.13;5043317;28;20021;-68
2022/09/12 07:43:51;;;;;;;;;;;;;;;31.22;36.89;98770.91;5049592;28;20021;-69
2022/09/12 07:46:17;;;;;;;5.13;3.97;;;;;;;31.07;36.41;98768.72;5045010;28;19978;-69
2022/09/12 07:48:43;;;;;;;7.68;4.10;;;;;;;31.86;35.26;98766.09;5046385;28;20471;-69
2022/09/12 07:51:09;;;;;;;9.20;3.70;;;;;;;31.69;35.32;98769.06;5052096;28;20033;-68
2022/09/12 07:53:39;;;;;;;9.27;3.67;;;;;;;31.23;35.47;98772.56;5046306;28;20060;-68
2022/09/12 07:56:07;;;;;;;10.60;3.80;;;;;;;32.22;34.40;98770.94;5048808;28;20116;-69
2022/09/12 07:58:34;;;;;;;6.45;3.70;;;;;;;31.75;35.24;98770.47;5040027;28;20025;-70
2022/09/12 08:01:13;;;;;;;4.68;3.83;;;;;;;30.53;37.13;98768.56;5046661;28;20082;-69
2022/09/12 08:03:43;;;;;;;4.55;3.90;;;;;;;29.97;38.06;98764.97;5048608;28;20486;-69
2022/09/12 08:06:14;;;;;;;9.50;4.30;;;;;;;31.53;34.72;98775.28;5044236;28;20528;-69
2022/09/12 08:08:40;;;;;;;9.60;3.88;;;;;;;31.22;36.38;98776.50;5048022;28;20025;-68
2022/09/12 08:11:12;;;;;;;4.55;4.10;;;;;;;31.96;34.53;98782.44;5048734;28;20067;-69
2022/09/12 08:13:39;;;;;;;7.22;4.90;;;;;;;29.74;38.49;98783.91;5048168;28;20027;-69
2022/09/12 08:16:07;;;;;;;5.70;4.43;;;;;;;29.48;38.54;98787.53;5046432;28;20040;-69
2022/09/12 08:18:34;;;;;;;9.13;4.60;;;;;;;29.99;38.02;98774.66;5042706;28;20029;-69
2022/09/12 08:21:05;;;;;;;10.32;4.43;;;;;;;30.67;36.79;98774.72;5048130;28;20283;-69
2022/09/12 08:23:31;;;;;;;5.05;4.28;;;;;;;30.72;36.40;98776.50;5044332;28;20048;-69
2022/09/12 08:25:58;;;;;;;4.75;3.83;;;;;;;30.44;36.70;98770.56;5048674;28;20471;-68
2022/09/12 08:28:24;;;;;;;5.90;4.03;;;;;;;30.39;37.29;98770.75;5042476;28;20017;-69
2022/09/12 08:30:50;;;;;;;4.93;3.72;;;;;;;31.47;35.54;98770.25;5043255;28;20497;-68
2022/09/12 08:33:15;;;;;;;5.68;3.42;;;;;;;31.86;35.59;98766.09;5042290;28;20033;-69
2022/09/12 08:35:40;;;;;;;6.18;3.90;;;;;;;31.97;34.60;98763.69;5044888;28;20056;-68
2022/09/12 08:38:06;;;;;;;3.90;3.40;;;;;;;32.19;35.19;98756.84;5048406;28;20429;-69
2022/09/12 08:40:40;;;;;;;8.05;3.53;;;;;;;32.19;34.73;98765.22;5049360;28;20024;-69
2022/09/12 08:43:23;;;;;;;4.97;3.42;;;;;;;31.70;34.89;98753.91;5064361;22;20127;-70
2022/09/12 08:46:04;;;;;;;6.55;3.03;;;;;;;33.54;32.57;98760.31;5011947;28;20511;-70
2022/09/12 08:48:30;;;;;;;6.47;3.30;;;;;;;33.88;31.93;98762.81;5019216;28;20042;-70
2022/09/12 08:50:55;;;;;;;19.25;4.88;;;;;;;33.08;33.25;98756.13;5019781;28;20028;-70
2022/09/12 08:53:24;;;;;;;6.68;3.30;;;;;;;33.96;31.68;98745.03;5020585;28;20029;-70
2022/09/12 08:55:54;;;;;;;5.78;2.90;;;;;;;33.04;33.94;98756.03;5017600;28;20037;-70
2022/09/12 08:58:22;;;;;;;5.80;2.80;;;;;;;32.72;33.67;98746.56;5017908;28;20044;-70
2022/09/12 09:01:10;;;;;;;4.90;2.95;;;;;;;33.74;32.49;98747.22;5018345;28;20025;-70
2022/09/12 09:03:57;;;;;;;8.30;2.72;;;;;;;33.38;32.91;98751.03;5011991;28;20026;-70
2022/09/12 09:06:30;;;;;;;9.57;3.03;;;;;;;33.40;32.68;98737.44;5025476;28;20045;-70
2022/09/12 09:08:58;;;;;;;7.22;3.13;;;;;;;34.06;31.79;98752.94;5014286;28;20030;-70
2022/09/12 09:11:50;;;;;;;6.72;2.75;;;;;;;33.94;31.78;98738.94;5025231;28;20074;-70
2022/09/12 09:17:19;;;;;;;52.88;4.38;;;;;;;34.65;31.13;98735.16;5021488;28;20044;-71
2022/09/12 09:20:09;;;;;;;2.38;1.90;;;;;;;34.08;31.63;98728.09;5017231;28;20030;-71
2022/09/12 09:22:59;;;;;;;4.22;2.17;;;;;;;35.93;28.99;98722.16;5016463;28;20446;-71
2022/09/12 09:25:37;;;;;;;3.60;2.10;;;;;;;35.96;28.93;98732.66;5020872;28;20026;-71
2022/09/12 09:28:21;;;;;;;5.65;1.95;;;;;;;35.19;30.32;98724.28;5030747;28;20028;-70
2022/09/12 09:30:47;;;;;;;2.70;2.25;;;;;;;33.16;32.33;98729.94;5021407;28;20030;-71
2022/09/12 09:33:25;;;;;;;4.60;1.80;;;;;;;35.71;28.90;98729.41;5020814;28;20156;-71
2022/09/12 09:36:19;;;;;;;2.72;1.90;;;;;;;34.69;30.13;98727.63;5006113;28;20123;-71
2022/09/12 09:38:51;;;;;;;4.72;1.90;;;;;;;35.28;29.57;98733.34;5017351;28;20083;-71
2022/09/12 09:41:35;;;;;;;4.30;1.70;;;;;;;36.32;28.41;98724.06;5023643;28;20061;-71
2022/09/12 09:44:01;;;;;;;6.75;2.20;;;;;;;34.20;30.45;98716.78;5027107;28;20021;-71
2022/09/12 09:46:27;;;;;;;6.00;2.00;;;;;;;34.72;30.69;98722.47;5017061;28;20018;-71
2022/09/12 09:48:53;;;;;;;4.68;2.08;;;;;;;35.66;29.50;98721.28;5017761;28;20033;-71
2022/09/12 09:51:26;;;;;;;4.05;1.58;;;;;;;36.65;27.35;98723.38;5014985;28;20553;-71
2022/09/12 09:54:36;;;;;;;1.52;1.33;;;;;;;35.95;28.28;98721.81;5016410;28;20026;-70
2022/09/12 09:57:02;;;;;;;4.10;1.52;;;;;;;36.54;27.40;98716.75;5009675;28;20069;-71
2022/09/12 09:59:32;;;;;;;2.97;1.35;;;;;;;36.18;26.87;98719.81;5019796;28;20029;-70
2022/09/12 10:02:02;;;;;;;2.15;1.50;;;;;;;35.43;27.04;98721.19;5015321;28;20526;-70
2022/09/12 10:04:34;;;;;;;1.85;1.50;;;;;;;35.44;26.96;98724.81;5012419;28;20104;-70
2022/09/12 10:07:02;;;;;;;2.60;1.00;;;;;;;34.02;28.63;98718.28;5013129;28;20029;-70
2022/09/12 10:09:33;;;;;;;1.88;1.05;;;;;;;33.52;28.78;98723.34;5010156;28;20105;-70
2022/09/12 10:12:18;;;;;;;3.22;1.30;;;;;;;33.08;29.86;98731.72;5010248;28;20026;-70
2022/09/12 10:14:56;;;;;;;2.92;1.67;;;;;;;32.49;30.07;98709.88;5017187;28;20047;-70
2022/09/12 10:17:27;;;;;;;2.28;1.55;;;;;;;32.96;30.16;98718.53;5011252;28;20033;-70
2022/09/12 10:19:53;;;;;;;2.50;1.70;;;;;;;33.53;29.21;98696.13;5013887;28;20029;-70
2022/09/12 10:22:21;;;;;;;1.67;1.15;;;;;;;34.57;27.12;98705.25;5017180;28;20079;-70
2022/09/12 10:24:51;;;;;;;2.45;1.50;;;;;;;34.54;28.03;98703.16;5014659;28;20026;-70
2022/09/12 10:27:26;;;;;;;4.30;1.65;;;;;;;34.00;28.23;98698.19;5017344;28;20040;-70
2022/09/12 10:29:59;;;;;;;1.85;1.30;;;;;;;35.54;26.00;98701.69;5029775;28;20557;-70
2022/09/12 10:32:30;;;;;;;2.53;1.30;;;;;;;35.60;25.99;98707.88;5018209;28;20022;-69
2022/09/12 10:35:01;;;;;;;3.10;1.25;;;;;;;35.21;26.47;98711.50;5013959;28;20032;-70
2022/09/12 10:37:32;;;;;;;1.67;1.00;;;;;;;33.27;27.28;98689.00;5013582;28;20032;-70
2022/09/12 10:39:59;;;;;;;1.73;1.20;;;;;;;31.86;29.54;98704.53;5016036;28;20503;-70
2022/09/12 10:42:47;;;;;;;4.03;1.77;;;;;;;31.94;29.47;98705.59;5007778;28;20033;-69
2022/09/12 10:45:26;;;;;;;2.45;1.27;;;;;;;32.71;28.45;98700.94;5007239;28;20548;-69
2022/09/12 10:47:53;;;;;;;1.45;1.15;;;;;;;33.33;28.55;98698.78;5027000;28;20025;-70
2022/09/12 10:50:31;;;;;;;2.92;1.38;;;;;;;33.24;28.77;98694.50;5013719;28;20022;-70
2022/09/12 10:53:31;;;;;;;2.28;1.30;;;;;;;32.89;29.39;98690.28;5011339;28;20399;-70
2022/09/12 10:56:05;;;;;;;2.50;1.20;;;;;;;33.79;29.10;98693.66;5016060;28;20120;-71
2022/09/12 10:58:59;;;;;;;4.03;1.60;;;;;;;31.73;30.94;98694.44;5004057;28;20159;-70
2022/09/12 11:01:37;;;;;;;3.80;1.20;;;;;;;34.14;28.40;98683.72;5028155;28;20017;-70
2022/09/12 11:04:17;;;;;;;2.05;1.40;;;;;;;35.10;27.19;98683.16;5025822;28;20026;-70
2022/09/12 11:07:05;;;;;;;5.50;1.45;;;;;;;35.20;26.04;98686.56;5001858;28;20111;-69
2022/09/12 11:09:53;;;;;;;4.30;1.40;;;;;;;33.73;27.46;98683.88;5015313;28;20456;-70
2022/09/12 11:12:45;;;;;;;3.35;1.52;;;;;;;33.53;28.08;98665.25;5019913;28;20482;-70
2022/09/12 11:15:34;;;;;;;4.82;1.48;;;;;;;34.08;27.22;98671.13;5011289;28;20041;-70
2022/09/12 11:18:16;;;;;;;0.80;0.80;;;;;;;35.46;26.41;98661.34;5017846;28;20030;-70
2022/09/12 11:20:47;;;;;;;21.00;2.80;;;;;;;35.37;26.59;98660.81;5006200;28;20029;-69
2022/09/12 11:23:37;;;;;;;6.85;1.42;;;;;;;35.85;25.66;98658.47;5022260;28;20479;-69
2022/09/12 11:26:10;;;;;;;2.35;1.20;;;;;;;35.73;25.59;98659.47;5010272;28;20029;-70
2022/09/12 11:28:51;;;;;;;3.22;0.90;;;;;;;35.67;25.49;98648.91;5013456;28;20056;-71
2022/09/12 11:31:28;;;;;;;1.38;0.90;;;;;;;34.56;26.33;98655.84;5008346;28;20156;-70
2022/09/12 11:33:59;;;;;;;4.30;1.00;;;;;;;33.75;27.66;98647.03;5008513;28;20040;-69
2022/09/12 11:37:16;;;;;;;1.88;1.00;;;;;;;33.49;28.32;98648.34;5005254;28;20132;-69
2022/09/12 11:39:45;;;;;;;0.98;0.88;;;;;;;34.34;27.95;98642.47;4996602;28;20503;-70
2022/09/12 11:42:24;;;;;;;0.70;0.63;;;;;;;36.13;23.92;98643.25;5015452;28;20140;-69
2022/09/12 11:45:02;;;;;;;1.42;0.80;;;;;;;35.14;24.85;98637.44;5007422;28;20029;-68
2022/09/12 11:47:31;;;;;;;1.17;1.02;;;;;;;35.96;24.33;98638.94;5010679;28;20017;-68
2022/09/12 11:49:59;;;;;;;2.42;0.73;;;;;;;35.92;24.57;98621.16;5015124;28;20487;-74
2022/09/12 11:52:33;;;;;;;1.50;0.70;;;;;;;36.47;24.05;98621.63;5024186;28;20076;-74